Time;durP1;ratioP1;P1;durP2;ratioP2;P2;SDS_P1;SDS_P2;PMS_P1;PMS_P2;Temp;Humidity;BMP_temperature;BMP_pressure;BME280_temperature;BME280_humidity;BME280_pressure;Samples;Min_cycle;Max_cycle;Signal;HPM_P1;HPM_P2
2022/09/05 00:01:27;;;;;;;2.17;0.60;;;15.40;96.00;;;;;;5032398;28;20378;-76
2022/09/05 00:04:32;;;;;;;2.22;0.55;;;15.70;95.50;;;;;;4954253;29;20384;-79
2022/09/05 00:07:11;;;;;;;1.50;0.60;;;15.60;95.80;;;;;;4954101;29;20467;-77
2022/09/05 00:09:51;;;;;;;2.00;0.70;;;15.30;96.00;;;;;;4954169;29;20424;-76
2022/09/05 00:12:18;;;;;;;2.45;0.50;;;15.20;96.80;;;;;;4954262;29;20479;-76
2022/09/05 00:14:45;;;;;;;2.63;0.50;;;15.40;97.00;;;;;;4954479;29;20397;-77
2022/09/05 00:17:24;;;;;;;2.17;0.70;;;15.50;95.00;;;;;;4954152;29;20377;-77
2022/09/05 00:20:48;;;;;;;3.65;0.68;;;15.50;94.30;;;;;;4953958;29;20878;-76
2022/09/05 00:23:33;;;;;;;1.63;0.60;;;15.50;94.30;;;;;;4916022;29;20388;-76
2022/09/05 00:26:32;;;;;;;1.20;0.40;;;15.50;94.30;;;;;;4915842;29;20415;-76
2022/09/05 00:29:20;;;;;;;1.38;0.47;;;15.60;94.10;;;;;;4915768;29;20479;-76
2022/09/05 00:32:07;;;;;;;6.47;0.70;;;15.70;93.60;;;;;;4932936;29;20391;-76
2022/09/05 00:35:00;;;;;;;2.45;0.60;;;15.70;92.10;;;;;;4940640;29;20382;-76
2022/09/05 00:37:31;;;;;;;2.70;0.50;;;15.80;92.20;;;;;;4940625;29;20383;-76
2022/09/05 00:40:15;;;;;;;6.30;0.70;;;16.00;87.90;;;;;;4953814;28;20409;-76
2022/09/05 00:42:46;;;;;;;4.30;0.70;;;15.90;90.50;;;;;;5031839;28;20358;-76
2022/09/05 00:45:31;;;;;;;3.25;0.75;;;16.00;86.00;;;;;;5031945;28;20751;-78
2022/09/05 00:48:05;;;;;;;2.67;0.60;;;16.00;88.50;;;;;;5031648;28;20493;-78
2022/09/05 00:50:57;;;;;;;2.97;0.68;;;16.00;88.40;;;;;;5031633;28;20409;-77
2022/09/05 00:53:45;;;;;;;1.70;0.45;;;16.20;89.50;;;;;;5031465;28;20872;-77
2022/09/05 00:56:21;;;;;;;2.97;0.60;;;16.50;84.60;;;;;;5038470;28;20382;-77
2022/09/05 00:59:08;;;;;;;2.70;0.70;;;16.40;84.50;;;;;;5114112;28;20386;-77
2022/09/05 01:02:17;;;;;;;3.20;0.50;;;16.70;83.50;;;;;;5114427;28;20444;-77
2022/09/05 01:04:47;;;;;;;2.15;0.50;;;16.80;82.40;;;;;;5110022;28;20402;-78
2022/09/05 01:07:33;;;;;;;3.53;0.60;;;16.90;80.60;;;;;;5113601;28;20373;-78
2022/09/05 01:10:25;;;;;;;1.65;0.60;;;17.00;80.50;;;;;;5114177;28;20508;-77
2022/09/05 01:13:11;;;;;;;1.52;0.60;;;17.00;79.70;;;;;;5113662;28;20361;-77
2022/09/05 01:16:04;;;;;;;7.20;0.90;;;17.00;79.90;;;;;;5113289;28;20363;-77
2022/09/05 01:18:49;;;;;;;2.13;0.70;;;17.10;81.30;;;;;;5104922;28;20382;-77
2022/09/05 01:21:28;;;;;;;0.95;0.50;;;17.40;79.40;;;;;;5113397;28;20889;-78
2022/09/05 01:24:10;;;;;;;2.38;0.63;;;17.80;77.90;;;;;;5113592;28;20382;-78
2022/09/05 01:26:56;;;;;;;2.70;0.70;;;18.00;76.00;;;;;;5113845;28;20408;-77
2022/09/05 01:29:42;;;;;;;1.65;0.50;;;18.30;73.20;;;;;;5113129;28;20425;-78
2022/09/05 01:32:27;;;;;;;3.17;0.70;;;19.00;73.20;;;;;;5113851;28;20780;-78
2022/09/05 01:35:16;;;;;;;2.77;0.80;;;19.60;66.60;;;;;;5113228;28;20692;-78
2022/09/05 01:38:05;;;;;;;1.50;0.65;;;19.90;65.30;;;;;;5113127;28;20730;-77
2022/09/05 01:41:04;;;;;;;3.47;0.60;;;20.10;62.40;;;;;;5113416;28;20726;-77
2022/09/05 01:43:52;;;;;;;2.42;0.60;;;20.50;60.70;;;;;;5113084;28;20409;-78
2022/09/05 01:46:34;;;;;;;2.40;0.70;;;21.10;59.90;;;;;;5113351;28;20446;-78
2022/09/05 01:49:24;;;;;;;2.70;0.60;;;21.70;57.50;;;;;;5113537;28;20397;-78
2022/09/05 01:52:12;;;;;;;5.18;0.80;;;21.80;56.20;;;;;;5113133;28;20719;-78
2022/09/05 01:54:56;;;;;;;1.85;0.60;;;22.40;55.90;;;;;;5113605;28;20744;-77
2022/09/05 01:57:54;;;;;;;2.70;0.70;;;22.80;54.10;;;;;;5113542;28;20391;-78
2022/09/05 02:00:38;;;;;;;0.98;0.50;;;23.00;53.80;;;;;;5113403;28;20398;-78
2022/09/05 02:03:26;;;;;;;3.22;0.70;;;23.50;51.00;;;;;;5113093;28;20359;-77
2022/09/05 02:06:37;;;;;;;3.28;0.70;;;23.80;51.30;;;;;;5113044;28;20374;-77
2022/09/05 02:09:22;;;;;;;1.80;0.63;;;22.70;50.80;;;;;;5029928;28;20409;-77
2022/09/05 02:12:15;;;;;;;7.43;1.02;;;22.20;53.50;;;;;;5030290;28;20373;-78
2022/09/05 02:15:03;;;;;;;10.27;1.27;;;21.60;53.40;;;;;;5030623;28;20864;-77
2022/09/05 02:17:42;;;;;;;3.10;0.88;;;20.60;55.20;;;;;;5030601;28;20721;-78
2022/09/05 02:20:33;;;;;;;4.83;0.60;;;19.80;56.60;;;;;;5030321;28;20385;-77
2022/09/05 02:23:09;;;;;;;5.17;0.77;;;19.90;58.10;;;;;;5030758;28;20384;-78
2022/09/05 02:25:49;;;;;;;1.88;0.60;;;20.50;55.50;;;;;;5032077;28;20459;-76
2022/09/05 02:28:36;;;;;;;1.40;0.60;;;21.00;54.70;;;;;;5035262;28;20366;-78
2022/09/05 02:31:29;;;;;;;1.88;0.50;;;20.70;53.70;;;;;;5034482;28;20451;-76
2022/09/05 02:34:29;;;;;;;1.90;0.70;;;20.50;53.90;;;;;;5035976;28;20373;-76
2022/09/05 02:37:08;;;;;;;2.53;0.70;;;20.90;57.00;;;;;;5048731;28;20382;-76
2022/09/05 02:39:50;;;;;;;1.50;0.60;;;20.60;56.30;;;;;;5054116;28;20444;-77
2022/09/05 02:42:36;;;;;;;1.38;0.65;;;20.10;56.30;;;;;;5067285;28;20377;-76
2022/09/05 02:45:12;;;;;;;8.90;1.00;;;19.60;58.40;;;;;;5136874;28;20338;-77
2022/09/05 02:48:09;;;;;;;6.30;0.83;;;20.80;56.60;;;;;;5119808;28;20378;-77
2022/09/05 02:50:48;;;;;;;2.00;0.60;;;22.20;53.30;;;;;;5117690;28;20398;-77
2022/09/05 02:53:20;;;;;;;1.67;0.70;;;22.10;52.20;;;;;;5117561;28;20394;-77
2022/09/05 02:56:05;;;;;;;1.52;0.50;;;21.60;52.70;;;;;;5117645;28;20376;-78
2022/09/05 02:59:00;;;;;;;1.00;0.50;;;21.20;53.50;;;;;;5098226;28;20383;-78
2022/09/05 03:01:55;;;;;;;2.50;0.75;;;21.10;55.80;;;;;;5116310;28;20381;-78
2022/09/05 03:04:59;;;;;;;0.70;0.70;;;22.00;54.30;;;;;;5116702;28;20446;-78
2022/09/05 03:07:46;;;;;;;2.33;0.60;;;22.70;53.20;;;;;;5116205;28;20378;-78
2022/09/05 03:10:41;;;;;;;2.40;0.50;;;22.70;51.90;;;;;;5115927;28;20751;-79
2022/09/05 03:13:54;;;;;;;1.50;0.55;;;22.10;52.20;;;;;;5098087;28;20367;-79
2022/09/05 03:16:27;;;;;;;0.80;0.55;;;21.10;52.40;;;;;;5108981;28;20375;-79
2022/09/05 03:19:01;;;;;;;1.92;0.60;;;20.60;54.70;;;;;;5117407;28;20789;-79
2022/09/05 03:21:52;;;;;;;1.70;0.50;;;20.40;55.60;;;;;;5117181;28;20359;-77
2022/09/05 03:24:37;;;;;;;2.80;0.60;;;20.80;54.70;;;;;;5115793;28;20363;-77
2022/09/05 03:27:42;;;;;;;4.27;0.90;;;20.80;54.40;;;;;;5115604;28;20355;-77
2022/09/05 03:30:19;;;;;;;2.55;0.60;;;20.60;55.00;;;;;;5114991;28;20410;-77
2022/09/05 03:33:17;;;;;;;2.10;0.82;;;20.40;55.30;;;;;;5116086;28;20374;-78
2022/09/05 03:36:12;;;;;;;1.33;0.60;;;19.80;56.70;;;;;;5115976;28;20370;-79
2022/09/05 03:39:07;;;;;;;1.45;0.60;;;19.60;57.70;;;;;;5080579;28;20722;-77
2022/09/05 03:41:55;;;;;;;1.60;0.50;;;20.80;57.40;;;;;;5116215;28;20857;-78
2022/09/05 03:44:41;;;;;;;2.20;0.60;;;22.20;54.90;;;;;;5115895;28;20358;-79
2022/09/05 03:47:43;;;;;;;2.08;0.70;;;23.90;52.50;;;;;;5115653;28;20861;-78
2022/09/05 03:50:47;;;;;;;2.40;0.80;;;25.20;50.60;;;;;;5119462;28;20395;-78
2022/09/05 03:53:51;;;;;;;3.88;0.85;;;25.40;50.50;;;;;;5117818;28;20363;-77
2022/09/05 03:56:46;;;;;;;2.35;0.80;;;24.60;50.40;;;;;;5063740;28;20375;-78
2022/09/05 03:59:38;;;;;;;2.35;0.95;;;23.30;53.80;;;;;;5115743;28;20378;-80
2022/09/05 04:02:32;;;;;;;3.58;0.90;;;22.60;55.90;;;;;;5115431;28;20366;-78
2022/09/05 04:05:18;;;;;;;1.95;0.88;;;21.50;58.30;;;;;;5072369;28;20862;-78
2022/09/05 04:08:39;;;;;;;2.45;0.80;;;20.70;59.40;;;;;;5069740;28;20374;-78
2022/09/05 04:11:30;;;;;;;1.60;0.70;;;20.00;58.20;;;;;;5033062;28;20389;-78
2022/09/05 04:14:26;;;;;;;2.70;0.73;;;19.50;60.40;;;;;;5030000;28;20373;-77
2022/09/05 04:17:08;;;;;;;1.85;0.70;;;19.10;61.20;;;;;;5012607;28;20421;-78
2022/09/05 04:19:43;;;;;;;2.38;0.70;;;18.80;61.90;;;;;;5013242;28;20422;-79
2022/09/05 04:22:23;;;;;;;3.45;0.90;;;18.60;62.70;;;;;;5012634;28;20382;-79
2022/09/05 04:25:02;;;;;;;4.80;1.10;;;18.70;65.80;;;;;;5013054;28;20517;-78
2022/09/05 04:27:46;;;;;;;4.18;0.95;;;18.80;67.10;;;;;;5012068;28;20386;-79
2022/09/05 04:30:34;;;;;;;5.38;1.08;;;19.60;67.80;;;;;;5012168;28;20408;-79
2022/09/05 04:33:20;;;;;;;3.10;0.90;;;20.20;65.50;;;;;;5012032;28;20466;-78
2022/09/05 04:35:48;;;;;;;4.18;1.00;;;20.30;64.80;;;;;;5011998;28;20425;-78
2022/09/05 04:38:18;;;;;;;3.90;0.80;;;20.40;65.40;;;;;;5013069;28;20382;-78
2022/09/05 04:40:48;;;;;;;3.25;0.90;;;21.00;63.30;;;;;;5011769;28;20704;-78
2022/09/05 04:43:18;;;;;;;5.72;1.00;;;20.50;63.60;;;;;;5088875;28;20446;-78
2022/09/05 04:46:20;;;;;;;7.50;1.40;;;19.80;65.00;;;;;;5092799;28;20381;-78
2022/09/05 04:49:05;;;;;;;3.95;1.02;;;19.40;66.70;;;;;;5083052;28;20950;-79
2022/09/05 04:52:01;;;;;;;1.92;0.70;;;19.40;67.70;;;;;;5092455;28;20388;-78
2022/09/05 04:54:34;;;;;;;4.00;0.90;;;20.90;63.50;;;;;;5105446;28;20466;-77
2022/09/05 04:57:14;;;;;;;4.17;1.10;;;21.70;61.50;;;;;;5114131;28;20407;-78
2022/09/05 05:00:06;;;;;;;4.65;1.15;;;21.80;61.90;;;;;;5114962;28;20722;-78
2022/09/05 05:02:43;;;;;;;1.92;0.90;;;22.80;60.10;;;;;;5115029;28;20383;-78
2022/09/05 05:05:18;;;;;;;3.53;0.90;;;23.80;56.70;;;;;;5116562;28;20375;-78
2022/09/05 05:08:01;;;;;;;2.67;0.82;;;23.10;56.30;;;;;;5117268;28;20402;-77
2022/09/05 05:10:38;;;;;;;2.63;0.82;;;22.30;57.70;;;;;;5116100;28;20884;-77
2022/09/05 05:13:22;;;;;;;5.20;1.00;;;21.20;59.80;;;;;;5115316;28;20506;-78
2022/09/05 05:16:04;;;;;;;2.88;1.00;;;20.60;61.20;;;;;;5115336;28;20359;-76
2022/09/05 05:18:42;;;;;;;3.17;0.98;;;20.00;63.70;;;;;;5116113;28;20370;-79
2022/09/05 05:21:18;;;;;;;4.40;0.90;;;19.50;65.30;;;;;;5116464;28;20719;-78
2022/09/05 05:24:18;;;;;;;4.57;1.02;;;19.10;67.20;;;;;;5117067;28;20435;-76
2022/09/05 05:27:00;;;;;;;3.30;1.00;;;18.90;68.60;;;;;;5111945;28;20455;-75
2022/09/05 05:29:47;;;;;;;4.32;1.10;;;18.80;69.00;;;;;;5115762;28;20398;-79
2022/09/05 05:32:28;;;;;;;4.18;1.10;;;18.70;70.00;;;;;;5032864;28;20378;-76
2022/09/05 05:35:03;;;;;;;3.55;1.10;;;18.70;70.20;;;;;;5033569;28;20385;-78
2022/09/05 05:37:50;;;;;;;4.05;1.02;;;18.80;70.70;;;;;;5033025;28;20468;-77
2022/09/05 05:40:37;;;;;;;3.15;0.90;;;18.80;70.30;;;;;;5032632;28;20389;-78
2022/09/05 05:43:16;;;;;;;2.37;0.90;;;19.10;71.50;;;;;;5036586;28;20416;-79
2022/09/05 05:45:43;;;;;;;2.97;0.90;;;20.20;67.60;;;;;;5035127;28;20384;-78
2022/09/05 05:48:33;;;;;;;3.15;0.90;;;21.20;64.90;;;;;;5035793;28;20374;-77
2022/09/05 05:51:22;;;;;;;3.95;1.10;;;22.40;62.00;;;;;;5034977;28;20382;-80
2022/09/05 05:54:01;;;;;;;3.38;0.90;;;23.40;59.70;;;;;;5034355;28;20423;-79
2022/09/05 05:56:56;;;;;;;4.00;0.80;;;24.10;57.20;;;;;;5031872;28;20765;-79
2022/09/05 05:59:43;;;;;;;1.75;0.85;;;24.40;55.90;;;;;;5032692;28;20385;-78
2022/09/05 06:02:13;;;;;;;1.88;0.80;;;24.10;54.70;;;;;;5031890;28;20377;-74
2022/09/05 06:05:17;;;;;;;4.57;1.05;;;22.50;56.90;;;;;;5031841;28;20792;-76
2022/09/05 06:08:17;;;;;;;2.55;0.80;;;20.90;59.90;;;;;;5030051;28;20707;-73
2022/09/05 06:11:26;;;;;;;2.10;0.80;;;19.70;63.50;;;;;;5112731;28;20401;-73
2022/09/05 06:14:37;;;;;;;3.35;0.93;;;19.00;66.30;;;;;;5108349;28;20545;-74
2022/09/05 06:17:23;;;;;;;3.45;1.05;;;19.10;67.50;;;;;;5112304;28;20374;-73
2022/09/05 06:19:51;;;;;;;2.70;0.82;;;19.30;67.70;;;;;;5112986;28;20452;-73
2022/09/05 06:22:39;;;;;;;5.18;1.10;;;19.50;66.90;;;;;;5112807;28;20371;-74
2022/09/05 06:25:09;;;;;;;5.47;0.93;;;19.30;66.50;;;;;;5113158;28;20426;-75
2022/09/05 06:27:48;;;;;;;3.50;0.90;;;19.30;66.90;;;;;;5112739;28;20382;-74
2022/09/05 06:30:22;;;;;;;4.22;1.00;;;19.40;66.90;;;;;;5113383;28;20391;-73
2022/09/05 06:33:26;;;;;;;2.95;1.08;;;19.50;67.50;;;;;;5112687;28;20366;-74
2022/09/05 06:36:37;;;;;;;6.00;1.10;;;19.20;67.90;;;;;;5113504;28;20351;-73
2022/09/05 06:39:16;;;;;;;5.07;1.08;;;19.00;68.40;;;;;;5032109;28;20366;-77
2022/09/05 06:42:13;;;;;;;4.47;0.90;;;18.60;69.10;;;;;;5031950;28;20413;-73
2022/09/05 06:45:04;;;;;;;3.73;1.10;;;18.20;70.10;;;;;;5032123;28;20485;-81
2022/09/05 06:47:35;;;;;;;3.72;1.00;;;18.00;71.40;;;;;;5030270;28;20381;-72
2022/09/05 06:50:12;;;;;;;3.72;1.10;;;17.90;72.10;;;;;;5030256;28;20435;-72
2022/09/05 06:52:47;;;;;;;3.67;1.00;;;17.80;73.40;;;;;;5030558;28;20393;-71
2022/09/05 06:55:39;;;;;;;8.40;1.23;;;17.70;72.70;;;;;;5030801;28;20423;-71
2022/09/05 06:58:15;;;;;;;3.60;1.23;;;17.60;72.60;;;;;;5030311;28;20365;-71
2022/09/05 07:00:49;;;;;;;3.90;0.90;;;17.40;73.50;;;;;;5031055;28;20373;-73
2022/09/05 07:03:46;;;;;;;2.35;0.80;;;17.20;74.10;;;;;;5034177;28;20381;-72
2022/09/05 07:06:34;;;;;;;2.73;0.90;;;17.10;74.90;;;;;;5031766;28;20397;-72
2022/09/05 07:09:18;;;;;;;4.15;1.25;;;16.90;75.30;;;;;;5029754;28;20935;-74
2022/09/05 07:12:13;;;;;;;2.97;1.00;;;16.60;75.10;;;;;;5031053;28;20381;-76
2022/09/05 07:15:31;;;;;;;2.67;1.00;;;16.30;75.40;;;;;;5086569;28;20369;-78
2022/09/05 07:18:01;;;;;;;3.22;1.02;;;16.00;76.80;;;;;;5033143;28;20497;-74
2022/09/05 07:20:52;;;;;;;4.60;1.20;;;15.80;77.50;;;;;;5033682;28;20857;-74
2022/09/05 07:23:39;;;;;;;3.55;0.98;;;15.50;78.40;;;;;;5017331;28;20749;-72
2022/09/05 07:26:10;;;;;;;3.42;1.17;;;15.30;80.70;;;;;;5014693;28;20481;-74
2022/09/05 07:28:43;;;;;;;3.90;1.20;;;15.10;82.80;;;;;;4982753;28;20383;-79
2022/09/05 07:31:16;;;;;;;3.85;1.10;;;14.90;85.20;;;;;;4997322;28;20416;-74
2022/09/05 07:33:47;;;;;;;5.50;1.10;;;14.80;88.20;;;;;;5014052;28;20376;-71
2022/09/05 07:36:23;;;;;;;4.77;1.27;;;14.60;90.00;;;;;;5013598;28;20826;-73
2022/09/05 07:38:57;;;;;;;6.70;1.20;;;14.60;91.20;;;;;;5013237;28;20387;-76
2022/09/05 07:41:30;;;;;;;5.38;1.20;;;14.50;92.40;;;;;;5013288;28;20415;-73
2022/09/05 07:44:10;;;;;;;4.47;1.40;;;14.40;93.00;;;;;;5010491;28;20466;-73
2022/09/05 07:46:39;;;;;;;4.18;1.10;;;14.30;93.70;;;;;;5013924;28;20441;-72
2022/09/05 07:49:15;;;;;;;5.60;1.55;;;14.10;94.50;;;;;;5013478;28;20490;-73
2022/09/05 07:51:57;;;;;;;6.03;1.10;;;14.60;95.40;;;;;;5013232;28;20392;-74
2022/09/05 07:54:30;;;;;;;4.53;1.20;;;13.90;95.90;;;;;;5038858;28;20358;-73
2022/09/05 07:57:03;;;;;;;4.10;1.20;;;13.80;96.10;;;;;;5072381;28;20378;-72
2022/09/05 07:59:41;;;;;;;4.57;1.30;;;13.60;97.00;;;;;;5072278;28;20366;-74
2022/09/05 08:02:11;;;;;;;5.25;1.25;;;13.60;97.60;;;;;;5075791;28;20831;-73
2022/09/05 08:04:40;;;;;;;7.30;1.80;;;13.40;98.00;;;;;;5114771;28;20378;-73
2022/09/05 08:07:32;;;;;;;6.72;1.30;;;13.40;98.80;;;;;;5114829;28;20450;-78
2022/09/05 08:10:04;;;;;;;4.43;1.50;;;13.30;98.30;;;;;;5114244;28;20407;-72
2022/09/05 08:12:40;;;;;;;5.20;1.30;;;13.30;98.30;;;;;;5114811;28;20415;-74
2022/09/05 08:15:10;;;;;;;6.60;1.40;;;13.20;98.40;;;;;;5115325;28;20355;-73
2022/09/05 08:18:07;;;;;;;3.10;1.27;;;13.20;98.50;;;;;;5114848;28;20389;-73
2022/09/05 08:20:50;;;;;;;3.23;1.30;;;13.10;99.10;;;;;;5115189;28;20366;-80
2022/09/05 08:23:38;;;;;;;6.23;1.40;;;13.00;99.00;;;;;;5096161;28;20390;-72
2022/09/05 08:26:18;;;;;;;6.28;1.50;;;13.00;99.10;;;;;;5115241;28;20374;-73
2022/09/05 08:29:25;;;;;;;4.90;1.40;;;13.00;98.90;;;;;;5114459;28;20452;-73
2022/09/05 08:32:13;;;;;;;3.38;1.50;;;12.90;99.30;;;;;;5115270;28;20382;-72
2022/09/05 08:34:55;;;;;;;6.32;1.42;;;12.90;99.30;;;;;;5114837;28;20378;-78
2022/09/05 08:37:26;;;;;;;6.95;1.50;;;12.80;99.90;;;;;;5115137;28;20371;-73
2022/09/05 08:40:17;;;;;;;5.40;1.27;;;12.70;99.90;;;;;;5115126;28;20379;-73
2022/09/05 08:43:13;;;;;;;8.23;1.60;;;12.60;99.90;;;;;;5109172;28;20379;-74
2022/09/05 08:45:58;;;;;;;6.72;1.58;;;12.50;99.90;;;;;;5096240;28;20446;-73
2022/09/05 08:48:33;;;;;;;5.57;1.40;;;12.50;99.90;;;;;;5114974;28;20363;-73
2022/09/05 08:51:25;;;;;;;5.70;1.50;;;12.40;99.90;;;;;;5115350;28;20485;-74
2022/09/05 08:54:13;;;;;;;8.30;1.70;;;11.20;99.90;;;;;;5114248;28;20375;-73
2022/09/05 08:57:01;;;;;;;8.10;1.80;;;12.40;99.90;;;;;;5116121;28;20404;-75
2022/09/05 08:59:40;;;;;;;7.60;1.70;;;12.40;99.90;;;;;;5114709;28;20371;-74
2022/09/05 09:02:45;;;;;;;6.40;1.52;;;12.40;99.90;;;;;;5114630;28;20458;-74
2022/09/05 09:05:33;;;;;;;4.80;1.83;;;12.30;99.90;;;;;;5032939;28;20484;-73
2022/09/05 09:08:12;;;;;;;7.30;3.30;;;12.20;99.90;;;;;;5014700;28;20524;-75
2022/09/05 09:10:44;;;;;;;13.68;2.35;;;12.20;99.90;;;;;;5031775;28;20480;-75
2022/09/05 09:13:35;;;;;;;10.60;2.33;;;12.20;99.90;;;;;;5031172;28;20750;-76
2022/09/05 09:16:32;;;;;;;9.85;2.45;;;12.20;99.90;;;;;;5033218;28;20460;-72
2022/09/05 09:19:20;;;;;;;23.42;2.90;;;12.30;99.90;;;;;;5012937;28;20410;-83
2022/09/05 09:22:16;;;;;;;20.35;2.75;;;12.30;99.90;;;;;;5013950;28;20839;-83
2022/09/05 09:25:09;;;;;;;29.70;3.00;;;12.30;99.90;;;;;;5013479;28;20371;-83
2022/09/05 09:27:57;;;;;;;34.22;4.00;;;12.40;99.90;;;;;;5012899;28;20418;-80
2022/09/05 09:30:26;;;;;;;32.25;3.70;;;12.30;99.90;;;;;;5012582;28;20457;-78
2022/09/05 09:33:02;;;;;;;17.42;3.03;;;12.30;99.90;;;;;;5011788;28;20372;-76
2022/09/05 09:35:51;;;;;;;11.10;2.20;;;12.30;99.90;;;;;;5011035;28;20376;-73
2022/09/05 09:39:02;;;;;;;9.55;2.03;;;12.30;99.90;;;;;;5017068;28;20480;-82
2022/09/05 09:41:51;;;;;;;8.60;2.10;;;12.30;99.90;;;;;;5050623;28;20399;-74
2022/09/05 09:44:39;;;;;;;11.80;2.47;;;12.20;99.90;;;;;;5050408;28;20883;-73
2022/09/05 09:47:13;;;;;;;12.00;2.60;;;12.10;99.90;;;;;;5050317;28;20376;-73
2022/09/05 09:50:04;;;;;;;21.83;3.00;;;12.10;99.90;;;;;;5050425;28;20910;-73
2022/09/05 09:52:34;;;;;;;22.40;3.20;;;12.10;99.90;;;;;;5050867;28;20467;-73
2022/09/05 09:55:23;;;;;;;18.83;2.83;;;12.10;99.90;;;;;;5073184;28;20369;-72
2022/09/05 09:57:59;;;;;;;20.87;2.90;;;12.20;99.90;;;;;;5113289;28;20861;-71
2022/09/05 10:00:50;;;;;;;19.13;3.05;;;12.20;99.90;;;;;;5114053;28;20382;-73
2022/09/05 10:03:37;;;;;;;17.25;2.80;;;12.20;99.90;;;;;;5112925;28;20430;-73
2022/09/05 10:06:07;;;;;;;6.30;2.20;;;12.20;99.90;;;;;;5114049;28;20367;-74
2022/09/05 10:09:12;;;;;;;8.90;2.13;;;12.20;99.90;;;;;;5113037;28;20382;-73
2022/09/05 10:11:55;;;;;;;7.22;2.30;;;12.20;99.90;;;;;;5113430;28;20385;-73
2022/09/05 10:14:50;;;;;;;6.72;2.33;;;12.10;99.90;;;;;;5114392;28;20358;-74
2022/09/05 10:17:32;;;;;;;8.77;2.50;;;12.00;99.90;;;;;;5116862;28;20354;-74
2022/09/05 10:20:53;;;;;;;8.55;3.20;;;11.90;99.90;;;;;;5115276;28;20359;-74
2022/09/05 10:23:48;;;;;;;8.88;3.90;;;11.80;99.90;;;;;;5031150;28;20884;-74
2022/09/05 10:26:20;;;;;;;13.23;3.00;;;11.80;99.90;;;;;;5030625;28;20405;-74
2022/09/05 10:28:56;;;;;;;10.63;3.03;;;11.70;99.90;;;;;;5031079;28;20393;-73
2022/09/05 10:31:55;;;;;;;11.48;2.67;;;11.60;99.90;;;;;;5031158;28;20392;-74
2022/09/05 10:34:25;;;;;;;8.93;2.33;;;11.70;99.90;;;;;;5030290;28;20487;-73
2022/09/05 10:37:06;;;;;;;6.95;2.08;;;11.60;99.90;;;;;;5030849;28;20426;-74
2022/09/05 10:39:42;;;;;;;8.25;3.00;;;11.60;99.90;;;;;;5030705;28;20374;-72
2022/09/05 10:42:48;;;;;;;8.68;5.45;;;11.60;99.90;;;;;;5030520;28;20440;-72
2022/09/05 10:45:24;;;;;;;8.77;5.18;;;11.50;99.90;;;;;;5010455;28;20380;-73
2022/09/05 10:48:16;;;;;;;9.38;5.50;;;11.50;99.90;;;;;;5014635;28;20379;-73
2022/09/05 10:50:48;;;;;;;7.47;3.67;;;11.40;99.90;;;;;;5014505;28;20410;-72
2022/09/05 10:53:39;;;;;;;6.47;3.50;;;11.30;99.90;;;;;;5014670;28;20379;-73
2022/09/05 10:56:32;;;;;;;12.57;6.82;;;11.20;99.90;;;;;;5022920;28;20678;-73
2022/09/05 10:59:04;;;;;;;14.47;7.07;;;11.10;99.90;;;;;;5054060;28;20372;-73
2022/09/05 11:01:38;;;;;;;17.65;9.45;;;11.10;99.90;;;;;;5053851;28;20375;-73
2022/09/05 11:04:32;;;;;;;35.03;21.35;;;11.00;99.90;;;;;;5053797;28;20368;-74
2022/09/05 11:07:14;;;;;;;34.90;21.00;;;10.90;99.90;;;;;;5054203;28;20376;-73
2022/09/05 11:09:58;;;;;;;25.45;14.68;;;10.80;99.90;;;;;;5053304;28;20416;-73
2022/09/05 11:12:49;;;;;;;25.93;14.03;;;10.70;99.90;;;;;;5054465;28;20372;-74
2022/09/05 11:15:57;;;;;;;25.17;14.67;;;10.70;99.90;;;;;;5053135;28;20390;-71
2022/09/05 11:18:54;;;;;;;22.90;11.82;;;10.70;99.90;;;;;;5013934;28;20382;-72
2022/09/05 11:21:29;;;;;;;13.75;7.60;;;10.70;99.90;;;;;;5013990;28;20371;-72
2022/09/05 11:24:30;;;;;;;8.35;3.60;;;10.70;99.90;;;;;;5013532;28;20379;-72
2022/09/05 11:27:26;;;;;;;7.90;3.10;;;10.80;99.90;;;;;;4997086;28;20802;-72
2022/09/05 11:30:02;;;;;;;6.33;2.60;;;10.70;99.90;;;;;;4996952;28;20849;-73
2022/09/05 11:32:45;;;;;;;5.73;2.27;;;10.70;99.90;;;;;;5013430;28;20435;-73
2022/09/05 11:35:27;;;;;;;5.20;2.30;;;10.70;99.90;;;;;;5015725;28;20725;-73
2022/09/05 11:38:10;;;;;;;5.68;2.15;;;10.60;99.90;;;;;;5033115;28;20405;-73
2022/09/05 11:41:13;;;;;;;6.70;2.50;;;10.60;99.90;;;;;;5032899;28;20947;-72
2022/09/05 11:44:29;;;;;;;5.97;2.60;;;10.60;99.90;;;;;;5032773;28;20385;-73
2022/09/05 11:47:15;;;;;;;5.85;2.13;;;10.40;99.90;;;;;;5032871;28;20936;-73
2022/09/05 11:50:15;;;;;;;6.22;2.10;;;10.40;99.90;;;;;;5033388;28;20433;-72
2022/09/05 11:53:15;;;;;;;4.63;2.08;;;10.40;99.90;;;;;;5034214;28;20381;-72
2022/09/05 11:56:02;;;;;;;5.05;1.98;;;10.40;99.90;;;;;;5102697;28;20375;-72
2022/09/05 11:58:45;;;;;;;6.00;2.30;;;10.40;99.90;;;;;;5118379;28;20381;-73
2022/09/05 12:01:43;;;;;;;6.72;2.38;;;10.40;99.90;;;;;;5122243;28;20366;-72
2022/09/05 12:04:22;;;;;;;8.27;2.33;;;10.30;99.90;;;;;;5128644;28;20367;-72
2022/09/05 12:07:06;;;;;;;6.55;2.20;;;10.20;99.90;;;;;;5132951;28;20923;-73
2022/09/05 12:09:59;;;;;;;6.13;2.40;;;10.10;99.90;;;;;;5112945;28;20411;-72
2022/09/05 12:12:47;;;;;;;6.95;2.65;;;10.20;99.90;;;;;;5125862;28;20363;-73
2022/09/05 12:15:32;;;;;;;2.85;2.10;;;10.20;99.90;;;;;;5120177;28;20881;-73
2022/09/05 12:18:20;;;;;;;5.47;2.15;;;10.20;99.90;;;;;;5116368;28;20862;-73
2022/09/05 12:21:21;;;;;;;4.63;2.17;;;10.10;99.90;;;;;;5115273;28;20506;-72
2022/09/05 12:24:13;;;;;;;5.32;2.33;;;10.10;99.90;;;;;;5115145;28;20450;-72
2022/09/05 12:27:10;;;;;;;6.23;2.03;;;10.10;99.90;;;;;;5115079;28;20367;-72
2022/09/05 12:29:45;;;;;;;3.92;2.13;;;10.10;99.90;;;;;;5096325;28;20414;-72
2022/09/05 12:32:24;;;;;;;6.32;2.30;;;11.60;99.90;;;;;;5115304;28;20370;-71
2022/09/05 12:34:56;;;;;;;3.60;2.10;;;10.00;99.90;;;;;;5114473;28;20361;-72
2022/09/05 12:37:23;;;;;;;5.07;2.00;;;10.00;99.90;;;;;;5114461;28;20406;-72
2022/09/05 12:40:10;;;;;;;6.18;2.10;;;10.00;99.90;;;;;;5114212;28;20873;-72
2022/09/05 12:42:57;;;;;;;5.78;2.38;;;9.90;99.90;;;;;;5114299;28;20374;-73
2022/09/05 12:45:31;;;;;;;6.80;2.50;;;9.90;99.90;;;;;;5114252;28;20358;-72
2022/09/05 12:48:22;;;;;;;7.40;2.30;;;9.80;99.90;;;;;;5113965;28;20366;-72
2022/09/05 12:50:57;;;;;;;5.25;2.20;;;9.70;99.90;;;;;;5114145;28;20386;-73
2022/09/05 12:53:33;;;;;;;6.25;2.30;;;9.70;99.90;;;;;;5114615;28;20420;-73
2022/09/05 12:56:11;;;;;;;7.50;2.30;;;9.70;99.90;;;;;;5113965;28;20374;-73
2022/09/05 12:58:43;;;;;;;8.88;2.70;;;9.60;99.90;;;;;;5113950;28;20434;-73
2022/09/05 13:01:16;;;;;;;8.05;2.80;;;9.60;99.90;;;;;;5095825;28;20379;-72
2022/09/05 13:03:57;;;;;;;9.32;3.10;;;9.60;99.90;;;;;;5113927;28;20722;-72
2022/09/05 13:06:34;;;;;;;7.53;2.90;;;9.60;99.90;;;;;;5114132;28;20385;-73
2022/09/05 13:09:15;;;;;;;6.03;3.00;;;9.60;99.90;;;;;;5112931;28;20404;-72
2022/09/05 13:11:51;;;;;;;9.35;3.17;;;9.50;99.90;;;;;;5095158;28;20862;-73
2022/09/05 13:14:25;;;;;;;8.85;3.53;;;9.50;99.90;;;;;;5113622;28;20389;-72
2022/09/05 13:16:55;;;;;;;8.60;3.50;;;9.50;99.90;;;;;;5113756;28;20888;-73
2022/09/05 13:19:32;;;;;;;7.78;3.25;;;9.50;99.90;;;;;;5114019;28;20408;-72
2022/09/05 13:22:07;;;;;;;16.60;3.30;;;9.50;99.90;;;;;;5118820;28;20397;-72
2022/09/05 13:24:37;;;;;;;20.83;3.20;;;9.40;99.90;;;;;;5117633;28;20426;-72
2022/09/05 13:27:15;;;;;;;23.48;3.33;;;9.40;99.90;;;;;;5114006;28;20371;-72
2022/09/05 13:30:04;;;;;;;26.65;3.40;;;9.50;99.90;;;;;;5113554;28;20422;-72
2022/09/05 13:33:01;;;;;;;28.27;3.78;;;9.60;99.90;;;;;;5113247;28;20391;-73
2022/09/05 13:35:31;;;;;;;19.98;3.00;;;9.60;99.90;;;;;;5030908;28;20832;-72
2022/09/05 13:38:42;;;;;;;16.42;2.80;;;9.70;99.90;;;;;;5030848;28;20788;-72
2022/09/05 13:41:17;;;;;;;13.20;2.50;;;9.60;99.90;;;;;;5030523;28;20397;-72
2022/09/05 13:43:44;;;;;;;16.20;2.70;;;9.60;99.90;;;;;;5030784;28;20453;-72
2022/09/05 13:46:38;;;;;;;11.80;2.30;;;9.50;99.90;;;;;;5030217;28;20757;-72
2022/09/05 13:49:18;;;;;;;13.90;2.50;;;9.50;99.90;;;;;;5030096;28;20402;-71
2022/09/05 13:51:59;;;;;;;9.95;2.30;;;9.50;99.90;;;;;;5030886;28;20374;-72
2022/09/05 13:55:09;;;;;;;11.00;2.45;;;9.60;99.90;;;;;;5030369;28;20366;-72
2022/09/05 13:57:42;;;;;;;9.50;2.10;;;9.60;99.90;;;;;;5010421;28;20380;-72
2022/09/05 14:00:16;;;;;;;5.93;1.85;;;9.60;99.90;;;;;;5010384;28;20725;-72
2022/09/05 14:03:06;;;;;;;6.43;2.20;;;9.60;99.90;;;;;;5011200;28;20542;-71
2022/09/05 14:06:01;;;;;;;9.18;2.20;;;9.70;99.90;;;;;;5010712;28;20383;-72
2022/09/05 14:08:46;;;;;;;10.77;2.60;;;9.70;99.90;;;;;;5010622;28;20402;-72
2022/09/05 14:11:35;;;;;;;15.00;2.72;;;9.70;99.90;;;;;;5020036;28;20494;-72
2022/09/05 14:14:21;;;;;;;11.05;2.58;;;9.70;99.90;;;;;;5049964;28;20367;-72
2022/09/05 14:16:54;;;;;;;10.20;2.43;;;9.70;99.90;;;;;;5050053;28;20372;-72
2022/09/05 14:22:11;;;;;;;15.25;2.58;;;9.60;99.90;;;;;;5050196;28;20711;-73